Time;durP1;ratioP1;P1;durP2;ratioP2;P2;SDS_P1;SDS_P2;PMS_P1;PMS_P2;Temp;Humidity;BMP_temperature;BMP_pressure;BME280_temperature;BME280_humidity;BME280_pressure;Samples;Min_cycle;Max_cycle;Signal;HPM_P1;HPM_P2
2021/10/08 00:00:25;;;;;;;2.05;0.90;;;15.50;53.00;;;;;;5092213;28;20040;-66
2021/10/08 00:02:52;;;;;;;0.93;0.60;;;15.50;52.50;;;;;;5093116;28;20032;-66
2021/10/08 00:05:18;;;;;;;0.80;0.50;;;15.50;52.70;;;;;;5093429;28;20027;-66
2021/10/08 00:07:45;;;;;;;2.05;0.70;;;15.50;52.60;;;;;;5092849;28;20035;-70
2021/10/08 00:10:11;;;;;;;2.25;0.70;;;15.50;52.40;;;;;;5093661;28;20055;-66
2021/10/08 00:12:38;;;;;;;1.80;1.40;;;15.50;52.40;;;;;;5092090;28;20044;-66
2021/10/08 00:15:05;;;;;;;2.03;0.60;;;15.50;52.10;;;;;;5073947;28;20044;-63
2021/10/08 00:17:32;;;;;;;1.77;0.70;;;15.50;52.20;;;;;;5092972;28;20021;-65
2021/10/08 00:19:59;;;;;;;1.65;1.00;;;15.50;52.20;;;;;;5075160;28;20040;-66
2021/10/08 00:22:25;;;;;;;1.52;0.70;;;15.50;52.40;;;;;;5092666;28;20040;-66
2021/10/08 00:24:52;;;;;;;3.17;0.80;;;15.50;52.80;;;;;;5075039;28;20047;-75
2021/10/08 00:27:18;;;;;;;2.50;0.90;;;15.50;52.60;;;;;;5093111;28;20047;-66
2021/10/08 00:29:45;;;;;;;2.75;0.85;;;15.50;52.70;;;;;;5092976;28;20035;-66
2021/10/08 00:32:11;;;;;;;1.33;0.70;;;15.50;52.40;;;;;;5093060;28;20467;-66
2021/10/08 00:34:37;;;;;;;4.00;1.55;;;15.50;52.60;;;;;;5092615;28;20039;-66
2021/10/08 00:37:04;;;;;;;5.55;2.20;;;15.50;52.30;;;;;;5092955;28;20032;-66
2021/10/08 00:39:30;;;;;;;4.57;2.05;;;15.50;52.20;;;;;;5092463;28;20051;-66
2021/10/08 00:41:57;;;;;;;1.88;1.10;;;15.50;51.60;;;;;;5074987;28;20047;-66
2021/10/08 00:44:23;;;;;;;3.30;1.30;;;15.50;51.20;;;;;;5074540;28;20035;-72
2021/10/08 00:46:50;;;;;;;5.60;2.20;;;15.50;51.10;;;;;;5057804;28;20036;-66
2021/10/08 00:49:16;;;;;;;2.53;1.42;;;15.60;50.90;;;;;;5074369;28;20035;-65
2021/10/08 00:51:43;;;;;;;4.30;1.50;;;15.60;50.50;;;;;;5074941;28;20032;-65
2021/10/08 00:54:09;;;;;;;4.07;1.50;;;15.60;50.50;;;;;;5092659;28;20460;-65
2021/10/08 00:56:36;;;;;;;4.57;1.88;;;15.60;50.80;;;;;;5074530;28;20401;-65
2021/10/08 00:59:03;;;;;;;2.45;1.30;;;15.70;50.70;;;;;;5092629;28;20372;-64
2021/10/08 01:01:30;;;;;;;1.92;1.13;;;15.70;50.90;;;;;;5092739;28;20028;-64
2021/10/08 01:03:56;;;;;;;1.63;1.00;;;15.70;51.50;;;;;;5074640;28;20043;-67
2021/10/08 01:06:23;;;;;;;2.05;1.00;;;15.70;51.00;;;;;;5092545;28;20039;-65
2021/10/08 01:08:49;;;;;;;1.75;0.90;;;15.70;50.90;;;;;;5057362;28;20534;-65
2021/10/08 01:11:21;;;;;;;1.88;0.80;;;15.70;50.50;;;;;;5056773;28;20047;-65
2021/10/08 01:13:51;;;;;;;2.10;0.93;;;15.70;50.70;;;;;;5075019;28;20036;-65
2021/10/08 01:16:23;;;;;;;1.90;1.08;;;15.70;50.50;;;;;;5074521;28;20032;-65
2021/10/08 01:18:50;;;;;;;5.00;1.00;;;15.70;51.10;;;;;;5075094;28;20055;-65
2021/10/08 01:21:18;;;;;;;3.75;1.35;;;15.70;50.80;;;;;;5074197;28;20059;-65
2021/10/08 01:23:46;;;;;;;1.50;0.90;;;15.70;50.50;;;;;;5074378;28;20047;-65
2021/10/08 01:26:14;;;;;;;2.65;1.20;;;15.80;50.30;;;;;;5057728;28;20028;-66
2021/10/08 01:28:41;;;;;;;3.72;1.95;;;15.80;50.30;;;;;;5056901;28;20048;-66
2021/10/08 01:31:12;;;;;;;4.85;1.52;;;15.80;50.10;;;;;;5074271;28;20039;-66
2021/10/08 01:33:50;;;;;;;3.42;2.25;;;15.80;49.80;;;;;;5075841;28;20058;-65
2021/10/08 01:36:18;;;;;;;2.05;1.05;;;15.80;49.10;;;;;;5061799;28;20039;-65
2021/10/08 01:38:46;;;;;;;2.35;1.08;;;15.90;48.80;;;;;;5077925;28;20031;-65
2021/10/08 01:41:13;;;;;;;1.55;0.80;;;15.90;49.60;;;;;;5077792;28;20036;-65
2021/10/08 01:43:40;;;;;;;1.73;0.75;;;15.90;51.50;;;;;;5061742;28;20475;-65
2021/10/08 01:46:07;;;;;;;1.58;0.88;;;15.80;55.30;;;;;;5061476;28;20024;-65
2021/10/08 01:48:36;;;;;;;3.80;0.70;;;15.70;56.20;;;;;;5078009;28;20487;-65
2021/10/08 01:51:04;;;;;;;1.35;0.80;;;15.60;56.00;;;;;;5078170;28;20020;-65
2021/10/08 01:53:32;;;;;;;2.13;1.27;;;15.60;57.50;;;;;;5077685;28;20032;-65
2021/10/08 01:55:59;;;;;;;1.75;0.68;;;15.60;57.60;;;;;;5077714;28;20031;-66
2021/10/08 01:58:31;;;;;;;2.72;0.80;;;15.60;57.70;;;;;;5060839;28;20364;-66
2021/10/08 02:00:58;;;;;;;1.20;0.50;;;15.60;58.10;;;;;;5077006;28;20036;-74
2021/10/08 02:03:32;;;;;;;2.35;1.05;;;15.60;58.30;;;;;;5077742;28;20043;-66
2021/10/08 02:05:59;;;;;;;3.10;0.77;;;15.60;58.70;;;;;;5060162;28;20036;-69
2021/10/08 02:08:28;;;;;;;1.75;0.50;;;15.60;58.80;;;;;;5076937;28;20051;-66
2021/10/08 02:10:59;;;;;;;;;;;15.60;59.30;;;;;;5078478;28;20499;-71
2021/10/08 02:13:26;;;;;;;1.67;0.80;;;15.50;60.00;;;;;;5077666;28;20386;-66
2021/10/08 02:15:52;;;;;;;2.58;1.00;;;15.50;60.50;;;;;;5095536;28;20024;-65
2021/10/08 02:18:20;;;;;;;1.38;0.82;;;15.40;61.00;;;;;;5077338;28;20036;-66
2021/10/08 02:20:47;;;;;;;3.15;0.82;;;15.40;61.70;;;;;;5077169;28;20028;-66
2021/10/08 02:23:14;;;;;;;1.98;0.60;;;15.30;62.50;;;;;;5077248;28;20032;-66
2021/10/08 02:25:44;;;;;;;2.63;0.73;;;15.30;63.40;;;;;;5061172;28;20040;-65
2021/10/08 02:28:11;;;;;;;1.17;0.88;;;15.30;63.40;;;;;;5095260;28;20036;-65
2021/10/08 02:30:38;;;;;;;1.80;0.70;;;15.30;64.20;;;;;;5076882;28;20039;-65
2021/10/08 02:33:05;;;;;;;3.40;0.93;;;15.20;64.60;;;;;;5077229;28;20032;-65
2021/10/08 02:35:31;;;;;;;2.17;0.80;;;15.20;64.70;;;;;;5076667;28;20028;-68
2021/10/08 02:37:58;;;;;;;1.48;0.60;;;15.10;63.30;;;;;;5077197;28;20028;-65
2021/10/08 02:40:24;;;;;;;1.42;0.57;;;15.10;63.20;;;;;;5076994;28;20032;-65
2021/10/08 02:42:51;;;;;;;1.92;0.80;;;15.10;63.40;;;;;;5076970;28;20028;-66
2021/10/08 02:45:17;;;;;;;0.70;0.40;;;15.00;64.00;;;;;;5058340;28;20827;-66
2021/10/08 02:47:44;;;;;;;0.98;0.60;;;14.90;63.90;;;;;;5076949;28;20035;-65
2021/10/08 02:50:10;;;;;;;2.10;0.80;;;14.90;63.50;;;;;;5094670;28;20028;-66
2021/10/08 02:52:37;;;;;;;0.80;0.60;;;14.90;63.90;;;;;;5076851;28;20498;-66
2021/10/08 02:55:08;;;;;;;1.80;0.70;;;14.90;63.60;;;;;;5076699;28;20043;-66
2021/10/08 02:57:39;;;;;;;1.23;0.60;;;14.90;63.70;;;;;;5075794;28;20395;-66
2021/10/08 03:00:08;;;;;;;1.23;0.65;;;14.90;63.90;;;;;;5060223;28;20047;-65
2021/10/08 03:02:38;;;;;;;3.40;0.80;;;14.80;64.00;;;;;;5092650;28;20052;-65
2021/10/08 03:05:06;;;;;;;2.45;1.00;;;14.80;64.00;;;;;;5058886;28;20043;-66
2021/10/08 03:07:32;;;;;;;2.78;1.08;;;14.80;64.20;;;;;;5076630;28;20035;-66
2021/10/08 03:09:59;;;;;;;1.48;0.85;;;14.80;64.20;;;;;;5076188;28;20377;-65
2021/10/08 03:12:26;;;;;;;3.28;1.17;;;14.70;64.80;;;;;;5076197;28;20028;-65
2021/10/08 03:14:53;;;;;;;2.38;1.38;;;14.70;65.00;;;;;;5076471;28;20032;-65
2021/10/08 03:17:19;;;;;;;0.90;0.60;;;14.70;65.20;;;;;;5076019;28;20024;-66
2021/10/08 03:19:47;;;;;;;3.58;1.25;;;14.70;64.70;;;;;;5076519;28;20040;-65
2021/10/08 03:22:13;;;;;;;2.95;1.10;;;14.60;64.10;;;;;;5094034;28;20039;-66
2021/10/08 03:24:40;;;;;;;1.90;0.90;;;14.60;64.30;;;;;;5076498;28;20047;-66
2021/10/08 03:27:07;;;;;;;1.80;0.80;;;14.60;64.40;;;;;;5094527;28;20028;-66
2021/10/08 03:29:34;;;;;;;2.53;0.85;;;14.60;64.60;;;;;;5094130;28;20032;-64
2021/10/08 03:32:00;;;;;;;1.15;0.80;;;14.50;66.10;;;;;;5094178;28;20032;-66
2021/10/08 03:34:27;;;;;;;2.75;0.88;;;14.50;67.20;;;;;;5075768;28;20039;-66
2021/10/08 03:36:58;;;;;;;1.60;1.08;;;14.40;67.60;;;;;;5076093;28;20032;-65
2021/10/08 03:39:30;;;;;;;2.22;0.85;;;14.40;68.20;;;;;;5075536;28;20067;-65
2021/10/08 03:41:56;;;;;;;2.80;0.95;;;14.40;68.10;;;;;;5075842;28;20032;-65
2021/10/08 03:44:23;;;;;;;2.47;0.90;;;14.40;67.20;;;;;;5075451;28;20036;-65
2021/10/08 03:46:53;;;;;;;2.20;1.15;;;14.30;67.10;;;;;;5075976;28;20032;-64
2021/10/08 03:49:24;;;;;;;2.65;1.17;;;14.30;67.70;;;;;;5075388;28;20039;-65
2021/10/08 03:51:52;;;;;;;2.35;1.23;;;14.30;68.00;;;;;;5093694;28;20036;-64
2021/10/08 03:54:19;;;;;;;2.95;1.50;;;14.30;68.10;;;;;;5093450;28;20043;-65
2021/10/08 03:56:46;;;;;;;3.40;1.70;;;14.20;68.90;;;;;;5075103;28;20039;-65
2021/10/08 03:59:14;;;;;;;2.83;0.90;;;14.20;68.60;;;;;;5092490;28;20042;-65
2021/10/08 04:01:41;;;;;;;1.90;1.08;;;14.10;68.90;;;;;;5075334;28;20036;-65
2021/10/08 04:04:08;;;;;;;3.95;1.63;;;14.10;68.50;;;;;;5093200;28;20028;-66
2021/10/08 04:06:36;;;;;;;5.00;1.30;;;14.10;66.30;;;;;;5058267;28;20043;-65
2021/10/08 04:09:05;;;;;;;4.63;1.33;;;14.10;66.10;;;;;;5075311;28;20051;-65
2021/10/08 04:11:35;;;;;;;3.33;1.70;;;14.20;65.30;;;;;;5075113;28;20032;-65
2021/10/08 04:14:03;;;;;;;3.53;1.70;;;14.20;65.30;;;;;;5075569;28;20043;-65
2021/10/08 04:16:30;;;;;;;3.88;1.30;;;14.30;65.20;;;;;;5057963;28;20040;-66
2021/10/08 04:18:57;;;;;;;2.67;1.48;;;14.30;65.10;;;;;;5075238;28;20044;-64
2021/10/08 04:21:24;;;;;;;2.15;1.50;;;14.30;65.40;;;;;;5058395;28;20027;-65
2021/10/08 04:23:51;;;;;;;6.82;1.52;;;14.30;66.00;;;;;;5075120;28;20492;-65
2021/10/08 04:26:19;;;;;;;2.72;1.33;;;14.30;65.60;;;;;;5074989;28;20464;-65
2021/10/08 04:28:45;;;;;;;2.55;1.15;;;14.30;64.90;;;;;;5093210;28;20040;-64
2021/10/08 04:31:13;;;;;;;3.00;1.25;;;14.30;64.80;;;;;;5074223;28;20047;-66
2021/10/08 04:33:41;;;;;;;3.72;1.38;;;14.30;64.80;;;;;;5058884;28;20361;-64
2021/10/08 04:36:08;;;;;;;3.30;1.30;;;14.30;65.40;;;;;;5058512;28;20055;-66
2021/10/08 04:38:37;;;;;;;2.20;1.10;;;14.30;65.80;;;;;;5073571;28;20043;-66
2021/10/08 04:41:07;;;;;;;2.78;1.13;;;14.30;67.00;;;;;;5075075;28;20036;-66
2021/10/08 04:43:34;;;;;;;4.35;1.20;;;14.10;68.80;;;;;;5058419;28;20028;-64
2021/10/08 04:46:01;;;;;;;3.28;1.33;;;14.00;70.10;;;;;;5057218;28;20475;-64
2021/10/08 04:48:28;;;;;;;3.38;1.00;;;14.00;70.70;;;;;;5074587;28;20031;-64
2021/10/08 04:50:55;;;;;;;3.65;0.88;;;14.00;71.10;;;;;;5074822;28;20028;-65
2021/10/08 04:53:24;;;;;;;2.63;1.30;;;14.10;71.10;;;;;;5074619;28;20040;-65
2021/10/08 04:55:53;;;;;;;2.72;1.60;;;14.00;71.10;;;;;;5074329;28;20071;-64
2021/10/08 04:58:19;;;;;;;2.88;1.48;;;14.00;72.80;;;;;;5074658;28;20024;-64
2021/10/08 05:00:47;;;;;;;3.63;1.98;;;14.00;72.80;;;;;;5091923;28;20048;-66
2021/10/08 05:03:16;;;;;;;3.03;1.88;;;13.90;74.00;;;;;;5092200;28;20036;-65
2021/10/08 05:05:47;;;;;;;2.78;1.85;;;13.80;73.80;;;;;;5074385;28;20057;-64
2021/10/08 05:08:19;;;;;;;4.55;2.05;;;13.80;74.70;;;;;;5059813;28;20044;-65
2021/10/08 05:10:47;;;;;;;5.47;2.15;;;13.60;75.30;;;;;;5078308;28;20384;-65
2021/10/08 05:13:15;;;;;;;4.55;1.60;;;13.50;76.20;;;;;;5078371;28;20036;-66
2021/10/08 05:15:42;;;;;;;4.72;1.75;;;13.40;77.10;;;;;;5096865;28;20032;-74
2021/10/08 05:18:10;;;;;;;5.70;1.73;;;13.40;77.00;;;;;;5078660;28;20132;-65
2021/10/08 05:20:37;;;;;;;4.80;1.73;;;13.40;77.10;;;;;;5078560;28;20028;-65
2021/10/08 05:23:03;;;;;;;3.92;2.10;;;13.40;77.50;;;;;;5078512;28;20385;-65
2021/10/08 05:25:30;;;;;;;3.53;1.95;;;13.40;77.20;;;;;;5078437;28;20044;-65
2021/10/08 05:27:57;;;;;;;4.20;1.95;;;13.40;77.30;;;;;;5078526;28;20036;-65
2021/10/08 05:30:23;;;;;;;4.20;1.90;;;13.40;77.50;;;;;;5092249;28;20040;-65
2021/10/08 05:32:50;;;;;;;5.38;2.17;;;13.40;77.20;;;;;;5095837;28;20367;-65
2021/10/08 05:35:17;;;;;;;3.50;1.90;;;13.40;76.60;;;;;;5078057;28;20459;-65
2021/10/08 05:37:44;;;;;;;4.32;2.40;;;13.40;76.10;;;;;;5096265;28;20058;-71
2021/10/08 05:40:11;;;;;;;3.63;2.05;;;13.40;75.50;;;;;;5061359;28;20376;-64
2021/10/08 05:42:40;;;;;;;2.03;1.60;;;13.50;75.50;;;;;;5078181;28;20407;-65
2021/10/08 05:45:07;;;;;;;2.58;1.67;;;13.50;76.30;;;;;;5077676;28;20506;-66
2021/10/08 05:47:35;;;;;;;2.50;1.58;;;13.50;76.80;;;;;;5076916;28;20480;-65
2021/10/08 05:50:02;;;;;;;4.35;2.10;;;13.60;76.90;;;;;;5077894;28;20047;-64
2021/10/08 05:52:29;;;;;;;3.30;2.67;;;13.60;77.30;;;;;;5056963;28;20040;-64
2021/10/08 05:54:55;;;;;;;5.18;2.03;;;13.60;77.80;;;;;;5072100;28;20032;-65
2021/10/08 05:57:22;;;;;;;2.75;1.95;;;13.50;77.90;;;;;;5089350;28;20032;-64
2021/10/08 05:59:48;;;;;;;4.88;1.95;;;13.50;77.60;;;;;;5071061;28;20034;-64
2021/10/08 06:02:15;;;;;;;3.83;1.92;;;13.50;77.70;;;;;;5057301;28;20522;-68
2021/10/08 06:04:42;;;;;;;3.20;1.90;;;13.50;77.70;;;;;;5075058;28;20035;-65
2021/10/08 06:07:10;;;;;;;2.80;1.60;;;13.50;77.50;;;;;;5073189;28;20460;-65
2021/10/08 06:09:38;;;;;;;3.83;1.92;;;13.50;77.10;;;;;;5072190;28;20044;-65
2021/10/08 06:12:06;;;;;;;2.65;1.40;;;13.60;76.60;;;;;;5073832;28;20032;-65
2021/10/08 06:14:37;;;;;;;4.10;1.75;;;13.50;75.60;;;;;;5074179;28;20021;-65
2021/10/08 06:17:04;;;;;;;2.50;1.33;;;13.50;75.90;;;;;;5083258;28;20499;-65
2021/10/08 06:19:31;;;;;;;10.13;2.20;;;13.50;75.50;;;;;;5065557;28;20024;-65
2021/10/08 06:21:57;;;;;;;2.70;1.60;;;13.50;75.60;;;;;;5063901;28;20376;-65
2021/10/08 06:24:24;;;;;;;2.42;2.15;;;13.60;75.60;;;;;;5081652;28;20032;-66
2021/10/08 06:26:50;;;;;;;3.75;2.20;;;13.60;75.40;;;;;;5043755;28;20036;-69
2021/10/08 06:29:18;;;;;;;3.83;1.83;;;13.60;75.00;;;;;;5073395;28;20028;-70
2021/10/08 06:31:45;;;;;;;5.28;3.42;;;13.60;74.30;;;;;;5073503;28;20028;-62
2021/10/08 06:34:12;;;;;;;7.30;3.72;;;13.70;74.80;;;;;;5070753;28;20051;-72
2021/10/08 06:36:39;;;;;;;10.73;6.75;;;13.70;73.90;;;;;;5053166;28;20484;-69
2021/10/08 06:39:06;;;;;;;10.27;7.00;;;13.80;77.20;;;;;;5070953;28;20464;-71
2021/10/08 06:41:33;;;;;;;9.23;5.20;;;14.00;78.10;;;;;;5050772;28;20055;-70
2021/10/08 06:44:10;;;;;;;7.57;4.70;;;14.10;76.40;;;;;;5072396;28;20044;-66
2021/10/08 06:46:39;;;;;;;6.40;4.45;;;14.10;74.90;;;;;;5069745;28;20025;-64
2021/10/08 06:49:06;;;;;;;7.55;4.70;;;14.10;74.60;;;;;;5069933;28;20379;-67
2021/10/08 06:51:35;;;;;;;6.35;3.58;;;14.20;75.50;;;;;;5062801;28;20361;-68
2021/10/08 06:54:03;;;;;;;18.90;11.52;;;14.20;73.50;;;;;;5078033;28;20032;-65
2021/10/08 06:56:30;;;;;;;10.07;6.50;;;14.30;74.30;;;;;;5065770;28;20375;-70
2021/10/08 06:59:08;;;;;;;17.42;12.57;;;14.30;73.10;;;;;;5073483;28;20479;-65
2021/10/08 07:01:34;;;;;;;14.75;10.65;;;14.30;75.20;;;;;;5057014;28;20035;-69
2021/10/08 07:04:02;;;;;;;21.13;13.30;;;14.40;73.60;;;;;;5060832;28;20028;-69
2021/10/08 07:06:31;;;;;;;15.35;8.55;;;14.40;74.20;;;;;;5062515;28;20052;-67
2021/10/08 07:09:12;;;;;;;7.35;3.40;;;14.40;72.80;;;;;;5065740;28;20040;-67
2021/10/08 07:11:39;;;;;;;8.70;5.80;;;14.40;70.90;;;;;;5065616;28;20039;-70
2021/10/08 07:14:05;;;;;;;19.35;13.52;;;14.40;71.60;;;;;;5074576;28;20701;-70
2021/10/08 07:16:32;;;;;;;6.60;3.78;;;14.40;72.60;;;;;;5092599;28;20464;-70
2021/10/08 07:19:07;;;;;;;4.35;2.72;;;14.40;71.70;;;;;;5063998;28;20040;-70
2021/10/08 07:21:34;;;;;;;5.50;2.70;;;14.40;72.30;;;;;;5075617;28;20028;-69
2021/10/08 07:24:00;;;;;;;6.90;4.00;;;14.30;72.10;;;;;;5093871;28;20039;-70
2021/10/08 07:26:30;;;;;;;4.65;2.80;;;14.30;72.00;;;;;;5093435;28;20055;-73
2021/10/08 07:28:57;;;;;;;6.47;3.47;;;14.30;71.90;;;;;;5093782;28;20028;-69
2021/10/08 07:31:23;;;;;;;7.35;3.10;;;14.30;71.70;;;;;;5092579;28;20024;-69
2021/10/08 07:33:49;;;;;;;14.00;3.67;;;14.30;71.70;;;;;;5093960;28;20028;-69
2021/10/08 07:36:16;;;;;;;10.35;5.22;;;14.30;71.90;;;;;;5093472;28;20028;-67
2021/10/08 07:38:42;;;;;;;6.05;3.55;;;14.30;72.10;;;;;;5093429;28;20028;-72
2021/10/08 07:41:09;;;;;;;5.60;3.22;;;14.30;72.10;;;;;;5093743;28;20036;-66
2021/10/08 07:43:37;;;;;;;6.32;3.30;;;14.30;72.00;;;;;;5092681;28;20384;-67
2021/10/08 07:46:07;;;;;;;8.48;3.67;;;14.40;71.80;;;;;;5093146;28;20032;-70
2021/10/08 07:48:33;;;;;;;;;;;14.40;72.20;;;;;;5093800;28;20023;-73
2021/10/08 07:51:00;;;;;;;5.78;2.60;;;14.40;72.40;;;;;;5092692;28;19908;-73
2021/10/08 07:53:27;;;;;;;7.20;2.47;;;14.40;72.40;;;;;;5093289;28;20368;-72
2021/10/08 07:55:55;;;;;;;7.10;2.30;;;14.50;72.50;;;;;;5075204;28;20032;-72
2021/10/08 07:58:26;;;;;;;10.27;2.53;;;14.50;72.60;;;;;;5075092;28;20020;-69
2021/10/08 08:00:55;;;;;;;5.97;2.58;;;14.50;73.20;;;;;;5075024;28;20067;-66
2021/10/08 08:03:22;;;;;;;6.07;2.88;;;14.50;72.80;;;;;;5092600;28;20371;-71
2021/10/08 08:05:48;;;;;;;8.18;4.38;;;14.50;72.90;;;;;;5092826;28;20039;-72
2021/10/08 08:08:15;;;;;;;6.57;3.42;;;14.60;73.30;;;;;;5092593;28;20043;-70
2021/10/08 08:10:43;;;;;;;13.23;4.22;;;14.60;73.00;;;;;;5074076;28;20051;-65
2021/10/08 08:13:11;;;;;;;8.13;3.90;;;14.60;73.40;;;;;;5092374;28;20032;-66
2021/10/08 08:15:37;;;;;;;7.80;3.75;;;14.70;73.90;;;;;;5074640;28;20043;-75
2021/10/08 08:18:04;;;;;;;10.55;5.07;;;14.70;73.70;;;;;;5092868;28;20024;-70
2021/10/08 08:20:31;;;;;;;6.65;5.28;;;14.80;73.60;;;;;;5092475;28;20043;-71
2021/10/08 08:22:57;;;;;;;15.65;9.23;;;14.80;73.30;;;;;;5092189;28;20039;-67
2021/10/08 08:25:24;;;;;;;10.50;7.90;;;14.80;73.60;;;;;;5074965;28;20024;-67
2021/10/08 08:27:50;;;;;;;10.23;5.95;;;14.80;73.30;;;;;;5092173;28;20024;-68
2021/10/08 08:30:17;;;;;;;10.20;6.55;;;14.90;73.30;;;;;;5074636;28;20031;-70
2021/10/08 08:32:43;;;;;;;8.20;4.82;;;15.00;74.30;;;;;;5092425;28;20035;-71
2021/10/08 08:35:09;;;;;;;12.10;7.68;;;15.10;74.10;;;;;;5091980;28;20040;-68
2021/10/08 08:37:36;;;;;;;9.27;4.65;;;15.10;73.70;;;;;;5092289;28;20024;-71
2021/10/08 08:40:06;;;;;;;6.90;3.75;;;15.10;74.10;;;;;;5092378;28;20367;-73
2021/10/08 08:42:34;;;;;;;6.78;3.35;;;15.10;74.40;;;;;;5092134;28;20032;-69
2021/10/08 08:45:00;;;;;;;6.28;3.10;;;15.20;74.50;;;;;;5091959;28;20518;-72
2021/10/08 08:47:27;;;;;;;3.83;2.58;;;15.20;74.70;;;;;;5090873;28;20371;-70
2021/10/08 08:49:53;;;;;;;5.18;3.15;;;15.20;74.40;;;;;;5090790;28;20028;-71
2021/10/08 08:52:21;;;;;;;5.35;3.83;;;15.20;74.40;;;;;;5092766;28;20051;-71
2021/10/08 08:54:48;;;;;;;6.63;3.95;;;15.30;74.90;;;;;;5092298;28;20379;-70
2021/10/08 08:57:19;;;;;;;7.55;3.40;;;15.40;74.50;;;;;;5091771;28;20020;-71
2021/10/08 09:00:09;;;;;;;7.05;4.40;;;15.40;73.60;;;;;;5072904;28;20594;-70
2021/10/08 09:02:39;;;;;;;8.70;5.78;;;15.50;73.20;;;;;;5073136;28;20031;-68
2021/10/08 09:05:06;;;;;;;14.27;10.75;;;15.60;72.80;;;;;;5092082;28;20110;-72
2021/10/08 09:07:35;;;;;;;9.25;4.25;;;15.70;72.90;;;;;;5056447;28;20035;-68
2021/10/08 09:10:23;;;;;;;11.90;7.75;;;15.90;71.00;;;;;;5073241;28;20487;-65
2021/10/08 09:12:53;;;;;;;12.70;8.23;;;15.90;70.40;;;;;;5091228;28;20028;-71
2021/10/08 09:15:20;;;;;;;9.43;6.77;;;16.00;69.30;;;;;;5074482;28;20024;-68
2021/10/08 09:17:47;;;;;;;7.38;4.70;;;16.00;68.60;;;;;;5091199;28;20748;-68
2021/10/08 09:20:18;;;;;;;8.50;6.10;;;16.10;67.40;;;;;;5089830;28;20035;-70
2021/10/08 09:22:51;;;;;;;11.05;6.40;;;16.10;67.40;;;;;;5091462;28;20049;-70
2021/10/08 09:25:30;;;;;;;8.77;3.60;;;16.10;68.00;;;;;;5092235;28;20036;-69
2021/10/08 09:28:07;;;;;;;5.05;2.75;;;16.20;67.70;;;;;;5073791;28;20032;-69
2021/10/08 09:30:43;;;;;;;8.57;3.88;;;16.30;67.10;;;;;;5092170;28;20031;-69
2021/10/08 09:33:15;;;;;;;6.47;3.03;;;16.30;67.40;;;;;;5092584;28;20032;-69
2021/10/08 09:35:42;;;;;;;5.75;3.15;;;16.40;66.40;;;;;;5073772;28;20455;-69
2021/10/08 09:38:12;;;;;;;4.38;2.90;;;16.40;66.50;;;;;;5092117;28;20036;-69
2021/10/08 09:40:48;;;;;;;5.22;3.25;;;16.50;66.20;;;;;;5073965;28;20513;-69
2021/10/08 09:43:35;;;;;;;6.00;3.15;;;16.60;66.00;;;;;;5091506;28;20094;-63
2021/10/08 09:46:03;;;;;;;6.32;2.78;;;16.70;66.00;;;;;;5089462;28;20067;-67
2021/10/08 09:48:42;;;;;;;8.65;4.75;;;16.80;64.90;;;;;;5090620;28;20395;-64
2021/10/08 09:51:16;;;;;;;8.70;4.38;;;16.80;66.00;;;;;;5090104;28;20020;-69
2021/10/08 09:53:48;;;;;;;4.15;2.92;;;16.90;66.00;;;;;;5091660;28;20020;-66
2021/10/08 09:56:35;;;;;;;6.88;4.28;;;17.00;64.50;;;;;;5095518;28;20028;-69
2021/10/08 09:59:03;;;;;;;7.43;4.78;;;17.10;65.10;;;;;;5095568;28;20556;-67
2021/10/08 10:01:33;;;;;;;7.45;4.60;;;17.20;65.10;;;;;;5088082;28;20032;-66
2021/10/08 10:04:02;;;;;;;9.50;5.25;;;17.20;64.80;;;;;;5080009;28;20044;-67
2021/10/08 10:06:28;;;;;;;10.02;7.90;;;17.30;64.60;;;;;;5091757;28;20016;-66
2021/10/08 10:08:55;;;;;;;9.77;6.65;;;17.40;64.00;;;;;;5089237;28;20055;-67
2021/10/08 10:11:23;;;;;;;10.98;7.40;;;17.50;63.40;;;;;;5072982;28;20024;-63
2021/10/08 10:13:53;;;;;;;5.07;3.22;;;17.60;63.40;;;;;;5069746;28;20063;-64
2021/10/08 10:16:19;;;;;;;9.75;4.22;;;17.60;62.80;;;;;;5091546;28;20039;-64
2021/10/08 10:18:52;;;;;;;6.90;3.47;;;17.70;63.50;;;;;;5090215;28;20035;-64
2021/10/08 10:21:20;;;;;;;5.75;3.35;;;17.70;62.70;;;;;;5091112;28;20039;-65
2021/10/08 10:23:51;;;;;;;5.90;3.90;;;17.80;61.10;;;;;;5085394;28;20043;-65
2021/10/08 10:26:22;;;;;;;10.05;5.43;;;17.90;60.70;;;;;;5091293;28;20039;-64
2021/10/08 10:28:49;;;;;;;7.50;4.47;;;17.90;61.00;;;;;;5090177;28;20035;-64
2021/10/08 10:31:18;;;;;;;5.90;3.38;;;17.90;61.00;;;;;;5066822;28;20488;-64
2021/10/08 10:33:45;;;;;;;5.30;2.70;;;17.90;60.90;;;;;;5086614;28;20031;-66
2021/10/08 10:36:32;;;;;;;5.57;3.03;;;17.90;59.80;;;;;;5091228;28;20032;-67
2021/10/08 10:39:18;;;;;;;9.48;2.95;;;17.90;60.50;;;;;;5090771;28;20027;-68
2021/10/08 10:42:13;;;;;;;6.72;3.17;;;17.90;62.80;;;;;;5089246;28;20471;-68
2021/10/08 10:45:28;;;;;;;7.00;2.63;;;17.90;62.60;;;;;;5088113;28;20028;-71
2021/10/08 10:48:21;;;;;;;5.25;2.53;;;17.80;61.30;;;;;;5079906;28;20048;-71
2021/10/08 10:51:10;;;;;;;3.17;1.85;;;17.80;61.10;;;;;;5069550;28;20036;-66
2021/10/08 10:54:03;;;;;;;4.07;1.90;;;17.90;59.30;;;;;;5089548;28;20032;-65
2021/10/08 10:56:41;;;;;;;3.65;1.98;;;17.90;58.80;;;;;;5084451;28;20040;-63
2021/10/08 10:59:23;;;;;;;5.40;2.03;;;18.00;58.50;;;;;;5090286;28;20027;-62
2021/10/08 11:02:17;;;;;;;3.83;2.17;;;18.00;58.20;;;;;;5089544;28;20028;-65
2021/10/08 11:04:55;;;;;;;3.22;2.03;;;18.00;58.20;;;;;;5089799;28;20039;-64
2021/10/08 11:07:23;;;;;;;4.82;2.45;;;18.00;58.40;;;;;;5085353;28;20373;-59
2021/10/08 11:09:59;;;;;;;7.32;3.35;;;18.10;58.70;;;;;;5074581;28;20070;-63
2021/10/08 11:12:42;;;;;;;6.40;2.10;;;18.20;59.30;;;;;;5087397;28;20032;-71
2021/10/08 11:15:17;;;;;;;3.85;1.95;;;18.10;57.10;;;;;;5076060;28;20024;-69
2021/10/08 11:18:00;;;;;;;3.75;1.65;;;18.20;57.20;;;;;;5091213;28;20503;-66
2021/10/08 11:20:29;;;;;;;7.05;2.55;;;18.20;55.60;;;;;;5089222;28;20114;-66
2021/10/08 11:23:00;;;;;;;8.13;2.67;;;18.20;56.90;;;;;;5085789;28;20051;-66
2021/10/08 11:25:29;;;;;;;6.10;2.33;;;18.30;57.60;;;;;;5042561;28;20043;-63
2021/10/08 11:27:56;;;;;;;8.05;2.45;;;18.30;57.10;;;;;;5085716;28;20043;-74
2021/10/08 11:30:27;;;;;;;6.50;1.85;;;18.30;57.50;;;;;;5071475;28;20036;-72
2021/10/08 11:32:56;;;;;;;6.20;2.42;;;18.30;56.80;;;;;;5079290;28;20488;-72
2021/10/08 11:35:31;;;;;;;6.85;2.67;;;18.30;55.90;;;;;;5086515;28;20020;-76
2021/10/08 11:37:58;;;;;;;6.60;2.13;;;18.30;56.50;;;;;;5089609;28;20028;-74
2021/10/08 11:40:34;;;;;;;4.43;1.90;;;18.30;55.80;;;;;;5089072;28;20028;-74
2021/10/08 11:43:04;;;;;;;3.97;1.58;;;18.30;55.50;;;;;;5069041;28;20036;-71
2021/10/08 11:45:43;;;;;;;3.80;2.22;;;18.30;54.90;;;;;;5075559;28;20028;-73
2021/10/08 11:48:28;;;;;;;4.90;1.95;;;18.30;55.20;;;;;;5095025;28;20039;-66
2021/10/08 11:51:05;;;;;;;4.75;1.52;;;18.30;55.50;;;;;;5086888;28;20028;-71
2021/10/08 11:53:52;;;;;;;5.05;1.55;;;18.30;54.40;;;;;;5086838;28;20047;-73
2021/10/08 11:56:27;;;;;;;3.33;1.50;;;18.30;55.30;;;;;;5053269;28;20471;-68
2021/10/08 11:59:06;;;;;;;3.80;1.60;;;18.30;55.20;;;;;;5078290;28;20028;-69
2021/10/08 12:01:33;;;;;;;6.97;1.48;;;18.40;55.90;;;;;;5081711;28;20028;-65
2021/10/08 12:03:59;;;;;;;3.67;1.67;;;18.40;56.30;;;;;;5086904;28;20385;-72
2021/10/08 12:06:31;;;;;;;3.35;1.40;;;18.40;56.30;;;;;;5082450;28;20028;-71
2021/10/08 12:09:03;;;;;;;2.63;1.42;;;18.40;53.70;;;;;;5084790;28;20055;-69
2021/10/08 12:11:31;;;;;;;5.03;2.22;;;18.40;53.00;;;;;;5083986;28;20034;-72
2021/10/08 12:14:07;;;;;;;4.68;2.60;;;18.40;53.30;;;;;;5054406;28;20043;-72
2021/10/08 12:16:39;;;;;;;8.75;5.20;;;18.40;52.70;;;;;;5065000;28;20032;-65
2021/10/08 12:19:06;;;;;;;12.00;8.80;;;18.40;53.00;;;;;;5073742;28;20051;-69
2021/10/08 12:21:39;;;;;;;10.38;8.43;;;18.40;53.90;;;;;;5088379;28;20042;-69
2021/10/08 12:24:13;;;;;;;16.83;9.45;;;18.40;53.30;;;;;;5089132;28;20047;-69
2021/10/08 12:27:00;;;;;;;9.57;6.40;;;18.40;53.30;;;;;;5090628;28;20047;-70
2021/10/08 12:29:44;;;;;;;12.45;8.10;;;18.40;52.90;;;;;;5065756;28;20047;-69
2021/10/08 12:32:15;;;;;;;17.08;13.10;;;18.40;53.00;;;;;;5090003;28;20051;-67
2021/10/08 12:34:47;;;;;;;17.50;15.13;;;18.50;54.00;;;;;;5084059;28;20024;-67
2021/10/08 12:37:23;;;;;;;10.63;7.30;;;18.50;54.80;;;;;;5089117;28;20020;-68
2021/10/08 12:40:12;;;;;;;9.95;6.22;;;18.60;53.70;;;;;;5081871;28;20040;-68
2021/10/08 12:43:01;;;;;;;4.28;2.90;;;18.60;54.00;;;;;;5076674;28;20036;-68
2021/10/08 12:45:42;;;;;;;5.97;3.28;;;18.60;52.80;;;;;;5084665;28;20039;-68
2021/10/08 12:48:16;;;;;;;;;;;18.60;53.30;;;;;;5083748;28;20027;-69
2021/10/08 12:50:42;;;;;;;6.00;2.47;;;18.60;53.30;;;;;;5083958;28;19931;-68
2021/10/08 12:53:19;;;;;;;3.72;1.92;;;18.60;53.30;;;;;;5070606;28;20507;-68
2021/10/08 12:55:48;;;;;;;4.47;2.17;;;18.60;53.80;;;;;;5068298;28;20031;-68
2021/10/08 12:58:24;;;;;;;5.72;2.30;;;18.70;53.70;;;;;;5086258;28;20028;-68